Time;durP1;ratioP1;P1;durP2;ratioP2;P2;SDS_P1;SDS_P2;PMS_P1;PMS_P2;Temp;Humidity;BMP_temperature;BMP_pressure;BME280_temperature;BME280_humidity;BME280_pressure;Samples;Min_cycle;Max_cycle;Signal;HPM_P1;HPM_P2
2021/07/03 00:01:01;;;;;;;14.88;10.25;;;;;;;16.64;72.38;99986.88;4975101;28;20035;-65
2021/07/03 00:03:26;;;;;;;12.00;10.25;;;;;;;16.63;72.51;99975.53;4975494;28;20047;-64
2021/07/03 00:05:52;;;;;;;15.40;9.45;;;;;;;16.62;72.34;99979.03;4973978;28;20038;-64
2021/07/03 00:08:17;;;;;;;18.15;10.13;;;;;;;16.62;72.43;99981.66;4974923;28;20043;-64
2021/07/03 00:10:43;;;;;;;12.73;9.30;;;;;;;16.62;72.33;99980.78;4973561;28;20042;-64
2021/07/03 00:13:11;;;;;;;17.13;10.32;;;;;;;16.62;72.25;99978.19;4974744;28;20418;-64
2021/07/03 00:15:37;;;;;;;12.98;10.18;;;;;;;16.61;72.33;99977.28;4973829;28;20077;-64
2021/07/03 00:18:03;;;;;;;12.88;10.00;;;;;;;16.59;72.46;99985.16;4974926;28;20494;-64
2021/07/03 00:20:29;;;;;;;13.15;10.68;;;;;;;16.58;72.38;99979.97;4974751;28;20057;-64
2021/07/03 00:22:55;;;;;;;14.57;9.82;;;;;;;16.58;72.32;99978.19;4974671;28;20410;-64
2021/07/03 00:25:20;;;;;;;12.02;10.02;;;;;;;16.57;72.23;99980.84;4975200;28;20050;-64
2021/07/03 00:27:46;;;;;;;14.57;9.85;;;;;;;16.57;72.28;99978.22;4974337;28;20035;-64
2021/07/03 00:30:12;;;;;;;10.88;9.40;;;;;;;16.56;72.34;99982.56;4973519;28;20039;-64
2021/07/03 00:32:38;;;;;;;11.80;9.35;;;;;;;16.57;72.44;99983.47;4958040;28;20073;-65
2021/07/03 00:35:05;;;;;;;13.30;10.30;;;;;;;16.57;72.27;99983.47;4974799;28;20066;-64
2021/07/03 00:37:31;;;;;;;13.93;10.18;;;;;;;16.56;72.33;99984.34;4973876;28;20101;-65
2021/07/03 00:39:56;;;;;;;15.70;10.00;;;;;;;16.55;72.43;99980.00;4973332;28;20441;-65
2021/07/03 00:42:22;;;;;;;13.35;10.02;;;;;;;16.54;72.21;99979.09;4974645;28;20030;-65
2021/07/03 00:44:48;;;;;;;17.27;11.15;;;;;;;16.54;72.33;99975.63;4974391;28;20039;-65
2021/07/03 00:47:14;;;;;;;12.02;9.70;;;;;;;16.54;72.20;99975.63;4957475;28;20105;-65
2021/07/03 00:49:39;;;;;;;14.48;10.30;;;;;;;16.51;72.12;99973.03;4974402;28;20050;-65
2021/07/03 00:52:10;;;;;;;12.40;9.77;;;;;;;16.50;72.26;99971.31;4974606;28;20089;-65
2021/07/03 00:54:37;;;;;;;13.98;10.43;;;;;;;16.50;72.34;99971.31;4957292;28;20158;-65
2021/07/03 00:57:05;;;;;;;15.88;10.85;;;;;;;16.49;72.43;99972.19;4973113;28;20062;-65
2021/07/03 00:59:33;;;;;;;14.52;10.02;;;;;;;16.48;72.39;99968.72;4957652;28;20039;-65
2021/07/03 01:02:02;;;;;;;15.02;9.88;;;;;;;16.48;72.39;99973.94;4958484;28;20042;-65
2021/07/03 01:04:28;;;;;;;12.05;10.27;;;;;;;16.48;72.32;99971.34;4960906;28;20514;-65
2021/07/03 01:06:54;;;;;;;12.70;9.98;;;;;;;16.47;71.99;99966.97;4978372;28;20047;-65
2021/07/03 01:09:19;;;;;;;13.60;10.43;;;;;;;16.47;72.31;99969.59;4978138;28;20049;-65
2021/07/03 01:11:45;;;;;;;15.20;10.50;;;;;;;16.47;72.67;99976.56;4978212;28;20434;-64
2021/07/03 01:14:11;;;;;;;14.05;8.95;;;;;;;16.47;72.33;99979.19;4978279;28;20054;-64
2021/07/03 01:16:36;;;;;;;13.38;9.48;;;;;;;16.46;72.34;99977.44;4978407;28;20505;-64
2021/07/03 01:19:04;;;;;;;15.07;10.60;;;;;;;16.47;72.42;99973.94;4976730;28;20044;-64
2021/07/03 01:21:30;;;;;;;12.82;10.10;;;;;;;16.45;72.57;99971.34;4978127;28;20041;-64
2021/07/03 01:23:55;;;;;;;12.85;10.10;;;;;;;16.46;72.34;99973.09;4978087;28;20035;-64
2021/07/03 01:26:21;;;;;;;13.43;9.82;;;;;;;16.46;72.65;99977.44;4977930;28;20544;-64
2021/07/03 01:28:47;;;;;;;14.23;10.02;;;;;;;16.46;72.37;99990.53;4960659;28;20480;-64
2021/07/03 01:31:14;;;;;;;12.73;9.95;;;;;;;16.45;72.37;99973.97;4978178;28;20089;-64
2021/07/03 01:33:39;;;;;;;12.00;10.38;;;;;;;16.44;72.27;99978.31;4976768;28;20039;-63
2021/07/03 01:36:07;;;;;;;12.60;10.10;;;;;;;16.45;72.31;99976.59;4977868;28;20120;-63
2021/07/03 01:38:33;;;;;;;13.80;10.50;;;;;;;16.43;72.32;99967.88;4977667;28;20041;-63
2021/07/03 01:40:58;;;;;;;13.70;10.43;;;;;;;16.43;72.19;99973.13;4977685;28;20125;-64
2021/07/03 01:43:27;;;;;;;14.88;11.02;;;;;;;16.43;72.29;99971.34;4977583;28;20038;-64
2021/07/03 01:45:54;;;;;;;12.45;10.13;;;;;;;16.43;72.31;99965.28;4960229;28;20042;-63
2021/07/03 01:48:28;;;;;;;11.75;10.00;;;;;;;16.43;72.37;99970.50;4960612;28;20050;-63
2021/07/03 01:50:56;;;;;;;17.75;9.73;;;;;;;16.43;72.45;99966.13;4960252;28;20102;-63
2021/07/03 01:53:23;;;;;;;13.85;11.13;;;;;;;16.43;72.44;99960.91;4959978;28;20090;-64
2021/07/03 01:55:50;;;;;;;12.57;11.00;;;;;;;16.42;72.40;99956.56;4977494;28;20089;-63
2021/07/03 01:58:25;;;;;;;17.00;10.95;;;;;;;16.42;72.23;99956.56;4976286;28;20042;-64
2021/07/03 02:00:55;;;;;;;15.75;10.32;;;;;;;16.43;72.31;99954.81;4960590;28;20039;-65
2021/07/03 02:03:22;;;;;;;13.43;10.77;;;;;;;16.42;72.40;99947.84;4960147;28;20097;-65
2021/07/03 02:05:48;;;;;;;14.93;11.15;;;;;;;16.42;72.33;99945.22;4959914;28;20030;-65
2021/07/03 02:08:13;;;;;;;13.32;11.15;;;;;;;16.41;72.27;99939.16;4976991;28;20038;-64
2021/07/03 02:10:39;;;;;;;13.93;10.75;;;;;;;16.41;72.41;99938.25;4977387;28;20031;-64
2021/07/03 02:13:05;;;;;;;12.68;10.85;;;;;;;16.41;72.34;99928.69;4976679;28;20089;-64
2021/07/03 02:15:31;;;;;;;14.52;12.00;;;;;;;16.40;72.22;99934.78;4975738;28;20039;-65
2021/07/03 02:17:57;;;;;;;15.85;11.90;;;;;;;16.39;72.45;99925.22;4975604;28;20069;-64
2021/07/03 02:20:23;;;;;;;14.25;10.13;;;;;;;16.40;72.30;99920.84;4975813;28;20070;-64
2021/07/03 02:22:49;;;;;;;18.40;12.15;;;;;;;16.39;72.16;99917.38;4975435;28;20130;-64
2021/07/03 02:25:14;;;;;;;14.85;11.80;;;;;;;16.39;72.45;99914.75;4976630;28;20522;-64
2021/07/03 02:27:40;;;;;;;14.55;11.57;;;;;;;16.38;72.51;99913.00;4975771;28;20041;-64
2021/07/03 02:30:09;;;;;;;14.40;11.80;;;;;;;16.37;72.22;99920.84;4975526;28;20034;-65
2021/07/03 02:32:35;;;;;;;17.88;11.73;;;;;;;16.36;72.16;99917.38;4959310;28;20086;-64
2021/07/03 02:35:01;;;;;;;17.60;11.35;;;;;;;16.36;72.32;99911.28;4976692;28;20055;-64
2021/07/03 02:37:27;;;;;;;15.40;11.90;;;;;;;16.35;72.26;99907.81;4976711;28;20038;-64
2021/07/03 02:39:52;;;;;;;17.30;11.15;;;;;;;16.35;72.29;99909.56;4959527;28;20066;-65
2021/07/03 02:42:20;;;;;;;20.48;12.05;;;;;;;16.35;72.27;99907.81;4959286;28;20524;-64
2021/07/03 02:44:46;;;;;;;15.52;11.70;;;;;;;16.35;72.39;99910.44;4976366;28;20041;-64
2021/07/03 02:47:11;;;;;;;14.07;10.85;;;;;;;16.36;72.31;99903.44;4975357;28;20042;-65
2021/07/03 02:49:37;;;;;;;16.55;11.18;;;;;;;16.35;72.31;99906.97;4976671;28;20030;-64
2021/07/03 02:52:03;;;;;;;15.23;12.20;;;;;;;16.35;72.19;99907.81;4976417;28;20039;-65
2021/07/03 02:54:28;;;;;;;15.35;12.30;;;;;;;16.35;72.25;99904.34;4976873;28;20042;-65
2021/07/03 02:56:57;;;;;;;15.73;11.13;;;;;;;16.36;72.26;99908.66;4975603;28;20467;-66
2021/07/03 02:59:26;;;;;;;15.48;11.15;;;;;;;16.35;72.28;99904.34;4958875;28;20486;-66
2021/07/03 03:01:52;;;;;;;16.02;11.63;;;;;;;16.35;72.27;99905.19;4974669;28;20487;-65
2021/07/03 03:04:19;;;;;;;17.60;11.70;;;;;;;16.34;72.19;99911.31;4975063;28;20038;-66
2021/07/03 03:06:45;;;;;;;13.00;11.10;;;;;;;16.35;72.11;99906.97;4975175;28;20246;-66
2021/07/03 03:09:10;;;;;;;15.00;11.52;;;;;;;16.34;72.36;99906.06;4976463;28;20074;-66
2021/07/03 03:11:36;;;;;;;13.73;11.13;;;;;;;16.33;72.22;99899.09;4976388;28;20034;-66
2021/07/03 03:14:05;;;;;;;17.73;11.00;;;;;;;16.33;72.24;99901.72;4975931;28;20026;-66
2021/07/03 03:16:31;;;;;;;13.77;11.30;;;;;;;16.34;72.17;99900.84;4959128;28;20038;-66
2021/07/03 03:18:56;;;;;;;18.13;10.55;;;;;;;16.33;72.17;99900.88;4975757;28;20042;-66
2021/07/03 03:21:22;;;;;;;14.57;11.57;;;;;;;16.33;72.20;99899.09;4975821;28;20564;-66
2021/07/03 03:23:48;;;;;;;15.52;11.32;;;;;;;16.32;72.34;99905.22;4957975;28;20062;-66
2021/07/03 03:26:16;;;;;;;13.57;10.52;;;;;;;16.33;72.14;99908.72;4974417;28;20066;-66
2021/07/03 03:28:42;;;;;;;16.67;11.48;;;;;;;16.32;72.22;99904.38;4975648;28;20066;-66
2021/07/03 03:31:07;;;;;;;14.18;10.82;;;;;;;16.31;72.18;99900.00;4975822;28;20525;-66
2021/07/03 03:33:33;;;;;;;13.85;11.38;;;;;;;16.31;72.10;99894.78;4958408;28;20125;-65
2021/07/03 03:35:59;;;;;;;14.43;10.68;;;;;;;16.31;72.28;99897.41;4975568;28;20519;-66
2021/07/03 03:38:25;;;;;;;14.45;10.90;;;;;;;16.29;72.05;99898.28;4976128;28;20073;-66
2021/07/03 03:40:50;;;;;;;14.90;12.30;;;;;;;16.30;72.10;99896.50;4974252;28;20045;-66
2021/07/03 03:43:16;;;;;;;19.25;12.75;;;;;;;16.29;72.23;99889.56;4975526;28;20078;-65
2021/07/03 03:45:41;;;;;;;14.00;11.75;;;;;;;16.28;72.07;99893.03;4975374;28;20034;-65
2021/07/03 03:48:07;;;;;;;16.48;11.68;;;;;;;16.27;72.15;99889.56;4975545;28;20511;-66
2021/07/03 03:50:34;;;;;;;12.55;10.88;;;;;;;16.28;72.19;99887.81;4975114;28;20501;-66
2021/07/03 03:53:00;;;;;;;14.07;11.27;;;;;;;16.27;72.19;99889.56;4957980;28;20050;-65
2021/07/03 03:55:29;;;;;;;16.08;12.25;;;;;;;16.28;72.10;99890.44;4975681;28;20038;-66
2021/07/03 03:57:55;;;;;;;15.02;11.60;;;;;;;16.27;72.04;99888.72;4958101;28;20066;-66
2021/07/03 04:00:22;;;;;;;21.20;12.32;;;;;;;16.27;72.20;99883.50;4973875;28;20494;-65
2021/07/03 04:02:48;;;;;;;17.85;11.95;;;;;;;16.27;72.21;99884.34;4957683;28;20045;-65
2021/07/03 04:05:14;;;;;;;17.08;12.88;;;;;;;16.26;72.04;99884.38;4973684;28;20038;-66
2021/07/03 04:07:43;;;;;;;15.82;12.20;;;;;;;16.25;72.12;99883.50;4974063;28;20038;-65
2021/07/03 04:10:10;;;;;;;14.35;11.80;;;;;;;16.25;72.08;99877.41;4973544;28;20039;-65
2021/07/03 04:12:36;;;;;;;14.40;10.98;;;;;;;16.25;72.21;99891.34;4973909;28;20039;-66
2021/07/03 04:15:03;;;;;;;15.38;11.70;;;;;;;16.24;72.20;99887.00;4974877;28;20050;-65
2021/07/03 04:17:29;;;;;;;17.25;12.35;;;;;;;16.25;72.02;99882.66;4973531;28;20033;-66
2021/07/03 04:19:56;;;;;;;13.88;11.48;;;;;;;16.25;72.13;99888.72;4975095;28;20030;-65
2021/07/03 04:22:22;;;;;;;14.95;11.52;;;;;;;16.23;72.09;99898.31;4975141;28;20039;-65
2021/07/03 04:24:47;;;;;;;15.32;11.50;;;;;;;16.24;72.21;99892.22;4975008;28;20492;-66
2021/07/03 04:27:13;;;;;;;14.73;12.15;;;;;;;16.24;72.24;99891.38;4973645;28;20038;-65
2021/07/03 04:29:39;;;;;;;18.88;12.85;;;;;;;16.24;72.34;99892.22;4973646;28;20035;-66
2021/07/03 04:32:05;;;;;;;14.25;11.52;;;;;;;16.24;72.13;99897.44;4973699;28;20391;-66
2021/07/03 04:34:31;;;;;;;15.15;11.82;;;;;;;16.23;72.19;99893.09;4973632;28;20039;-66
2021/07/03 04:36:58;;;;;;;15.45;12.65;;;;;;;16.24;72.26;99893.97;4973128;28;20070;-66
2021/07/03 04:39:24;;;;;;;17.25;13.02;;;;;;;16.24;72.14;99888.75;4957425;28;20031;-66
2021/07/03 04:41:50;;;;;;;15.38;12.40;;;;;;;16.24;72.07;99899.22;4973205;28;20085;-65
2021/07/03 04:44:17;;;;;;;16.00;11.98;;;;;;;16.25;72.23;99908.78;4973377;28;20037;-65
2021/07/03 04:46:45;;;;;;;13.98;11.50;;;;;;;16.25;72.25;99900.94;4973343;28;20125;-65
2021/07/03 04:49:11;;;;;;;16.52;11.90;;;;;;;16.25;72.06;99895.72;4974035;28;20426;-64
2021/07/03 04:51:37;;;;;;;15.30;12.50;;;;;;;16.25;72.15;99893.09;4973466;28;20046;-66
2021/07/03 04:54:03;;;;;;;16.50;11.82;;;;;;;16.25;72.15;99895.72;4974523;28;20390;-64
2021/07/03 04:56:29;;;;;;;14.63;11.88;;;;;;;16.25;72.25;99890.50;4973581;28;20042;-64
2021/07/03 04:58:55;;;;;;;14.18;11.90;;;;;;;16.25;72.35;99890.50;4973127;28;20446;-64
2021/07/03 05:01:21;;;;;;;16.70;12.45;;;;;;;16.27;72.05;99888.72;4974067;28;20043;-65
2021/07/03 05:03:46;;;;;;;16.63;11.73;;;;;;;16.27;72.27;99888.72;4972832;28;20549;-64
2021/07/03 05:06:14;;;;;;;19.00;12.82;;;;;;;16.27;72.40;99884.34;4973155;28;20046;-64
2021/07/03 05:08:40;;;;;;;15.13;12.10;;;;;;;16.28;72.08;99893.03;4974751;28;20038;-64
2021/07/03 05:11:09;;;;;;;17.05;12.65;;;;;;;16.27;72.26;99884.34;4973579;28;20045;-64
2021/07/03 05:13:35;;;;;;;13.35;11.82;;;;;;;16.28;72.12;99885.19;4973205;28;20105;-64
2021/07/03 05:16:01;;;;;;;17.50;12.95;;;;;;;16.29;72.12;99884.31;4973258;28;20487;-64
2021/07/03 05:18:29;;;;;;;15.15;12.65;;;;;;;16.30;72.21;99883.44;4957296;28;20038;-64
2021/07/03 05:20:55;;;;;;;14.95;12.32;;;;;;;16.29;72.32;99890.44;4974236;28;20491;-64
2021/07/03 05:23:23;;;;;;;17.55;13.55;;;;;;;16.31;72.25;99889.56;4957231;28;20042;-64
2021/07/03 05:25:52;;;;;;;15.77;13.30;;;;;;;16.31;72.28;99885.19;4974338;28;20102;-64
2021/07/03 05:28:18;;;;;;;16.70;13.38;;;;;;;16.31;72.24;99881.72;4973042;28;20058;-64
2021/07/03 05:30:44;;;;;;;15.82;12.60;;;;;;;16.32;72.22;99880.84;4974264;28;20081;-64
2021/07/03 05:33:09;;;;;;;17.83;12.35;;;;;;;16.32;72.35;99886.91;4973953;28;20035;-64
2021/07/03 05:35:35;;;;;;;14.73;12.85;;;;;;;16.34;72.35;99889.53;4974277;28;20054;-64
2021/07/03 05:38:00;;;;;;;14.60;12.73;;;;;;;16.34;72.30;99894.75;4974220;28;20380;-64
2021/07/03 05:40:27;;;;;;;14.85;12.75;;;;;;;16.34;72.30;99892.16;4956784;28;20121;-64
2021/07/03 05:42:53;;;;;;;16.17;12.85;;;;;;;16.34;72.30;99884.31;4972862;28;20078;-64
2021/07/03 05:45:18;;;;;;;16.02;12.45;;;;;;;16.35;72.37;99884.28;4972949;28;20140;-64
2021/07/03 05:47:50;;;;;;;15.55;12.05;;;;;;;16.35;72.21;99886.88;4975067;28;20634;-64
2021/07/03 05:50:18;;;;;;;14.60;12.15;;;;;;;16.35;72.37;99884.28;4978102;28;20049;-64
2021/07/03 05:52:44;;;;;;;18.30;13.32;;;;;;;16.36;72.39;99882.50;4977401;28;20053;-64
2021/07/03 05:55:10;;;;;;;16.83;12.40;;;;;;;16.36;72.47;99886.00;4976385;28;20394;-64
2021/07/03 05:57:35;;;;;;;13.30;11.90;;;;;;;16.37;72.21;99879.00;4976412;28;20121;-64
2021/07/03 06:00:03;;;;;;;14.20;12.23;;;;;;;16.37;72.37;99882.50;4960003;28;20177;-64
2021/07/03 06:02:31;;;;;;;14.73;12.43;;;;;;;16.38;72.20;99881.63;4977132;28;20502;-64
2021/07/03 06:04:56;;;;;;;13.77;11.93;;;;;;;16.39;72.38;99872.03;4960327;28;20038;-64
2021/07/03 06:07:26;;;;;;;15.82;12.80;;;;;;;16.40;72.26;99866.78;4976928;28;20093;-64
2021/07/03 06:09:53;;;;;;;15.15;12.23;;;;;;;16.41;72.11;99862.41;4976004;28;20039;-64
2021/07/03 06:12:19;;;;;;;13.90;11.90;;;;;;;16.42;72.32;99859.81;4975871;28;20035;-64
2021/07/03 06:14:45;;;;;;;13.75;12.07;;;;;;;16.43;72.36;99864.13;4959876;28;20057;-64
2021/07/03 06:17:15;;;;;;;14.13;12.15;;;;;;;16.44;72.34;99855.38;4977837;28;20554;-64
2021/07/03 06:19:42;;;;;;;14.32;11.70;;;;;;;16.46;72.20;99854.50;4975802;28;20093;-65
2021/07/03 06:22:10;;;;;;;13.23;10.93;;;;;;;16.46;72.22;99851.91;4975914;28;20049;-65
2021/07/03 06:24:38;;;;;;;14.82;11.68;;;;;;;16.47;72.40;99854.50;4976872;28;20101;-65
2021/07/03 06:27:04;;;;;;;14.50;11.48;;;;;;;16.47;72.46;99854.50;4977007;28;20034;-65
2021/07/03 06:29:29;;;;;;;13.77;11.27;;;;;;;16.49;72.35;99847.53;4976625;28;20043;-66
2021/07/03 06:31:57;;;;;;;11.65;10.45;;;;;;;16.50;72.45;99854.47;4975560;28;20042;-65
2021/07/03 06:34:23;;;;;;;14.43;11.38;;;;;;;16.51;72.25;99856.19;4975713;28;20038;-65
2021/07/03 06:36:48;;;;;;;15.77;11.88;;;;;;;16.52;72.32;99855.31;4976974;28;20479;-66
2021/07/03 06:39:16;;;;;;;13.57;11.38;;;;;;;16.54;72.36;99864.00;4975691;28;20090;-65
2021/07/03 06:41:44;;;;;;;15.70;12.13;;;;;;;16.55;72.33;99863.13;4958733;28;20177;-65
2021/07/03 06:44:12;;;;;;;12.57;10.80;;;;;;;16.56;72.29;99872.72;4975456;28;20113;-65
2021/07/03 06:46:38;;;;;;;16.13;12.50;;;;;;;16.58;72.28;99864.88;4975347;28;20113;-65
2021/07/03 06:49:06;;;;;;;14.35;10.98;;;;;;;16.61;72.25;99871.78;4975361;28;20074;-65
2021/07/03 06:51:31;;;;;;;12.55;11.20;;;;;;;16.62;72.18;99865.69;4976675;28;20412;-65
2021/07/03 06:54:00;;;;;;;12.98;10.82;;;;;;;16.64;72.39;99877.00;4976309;28;20046;-66
2021/07/03 06:56:28;;;;;;;15.07;10.95;;;;;;;16.64;72.34;99869.16;4975417;28;20038;-66
2021/07/03 06:58:54;;;;;;;14.30;11.90;;;;;;;16.66;72.24;99876.09;4976041;28;20047;-66
2021/07/03 07:01:19;;;;;;;15.38;10.88;;;;;;;16.67;72.49;99869.09;4975133;28;20045;-66
2021/07/03 07:03:45;;;;;;;12.63;11.20;;;;;;;16.69;72.40;99873.44;4973657;28;20061;-65
2021/07/03 07:06:10;;;;;;;12.95;11.55;;;;;;;16.71;72.13;99866.44;4973874;28;20070;-66
2021/07/03 07:08:36;;;;;;;14.88;10.43;;;;;;;16.73;72.36;99869.91;4973556;28;20035;-66
2021/07/03 07:11:09;;;;;;;16.27;11.13;;;;;;;16.75;72.48;99868.13;4975220;28;20043;-66
2021/07/03 07:13:34;;;;;;;15.15;10.70;;;;;;;16.78;72.32;99868.97;4956739;28;20118;-65
2021/07/03 07:16:03;;;;;;;13.25;9.68;;;;;;;16.80;72.17;99864.59;4975927;28;20134;-65
2021/07/03 07:18:33;;;;;;;15.23;11.25;;;;;;;16.82;72.33;99860.19;4959383;28;20035;-65
2021/07/03 07:21:04;;;;;;;14.05;10.68;;;;;;;16.83;72.35;99862.78;4975921;28;20039;-65
2021/07/03 07:23:29;;;;;;;14.25;10.73;;;;;;;16.84;72.25;99859.28;4975850;28;20486;-66
2021/07/03 07:25:58;;;;;;;14.48;9.93;;;;;;;16.86;72.26;99861.91;4975799;28;20123;-66
2021/07/03 07:28:26;;;;;;;12.45;9.50;;;;;;;16.87;72.24;99861.88;4958464;28;20372;-65
2021/07/03 07:30:51;;;;;;;12.55;10.85;;;;;;;16.88;72.27;99863.59;4975822;28;20039;-65
2021/07/03 07:33:17;;;;;;;13.00;11.05;;;;;;;16.89;72.39;99859.25;4975921;28;20035;-65
2021/07/03 07:35:43;;;;;;;13.05;9.68;;;;;;;16.89;72.16;99856.63;4974503;28;20039;-65
2021/07/03 07:38:09;;;;;;;13.77;10.32;;;;;;;16.91;72.35;99860.06;4974516;28;20034;-65
2021/07/03 07:40:34;;;;;;;14.70;10.20;;;;;;;16.92;72.42;99859.19;4975242;28;20038;-66
2021/07/03 07:43:00;;;;;;;15.70;10.75;;;;;;;16.93;72.31;99857.44;4975568;28;20109;-65
2021/07/03 07:45:28;;;;;;;12.35;9.82;;;;;;;16.94;72.12;99860.03;4975142;28;20042;-66
2021/07/03 07:47:54;;;;;;;12.00;9.75;;;;;;;16.95;72.29;99860.94;4975321;28;20045;-66
2021/07/03 07:50:22;;;;;;;11.60;9.35;;;;;;;16.95;72.29;99859.19;4975545;28;20035;-66
2021/07/03 07:52:48;;;;;;;11.73;10.32;;;;;;;16.97;72.16;99862.66;4958039;28;20026;-65
2021/07/03 07:55:13;;;;;;;13.07;9.95;;;;;;;16.99;72.36;99860.88;4974016;28;20045;-65
2021/07/03 07:57:39;;;;;;;12.00;10.32;;;;;;;16.99;72.21;99863.50;4975776;28;20089;-65
2021/07/03 08:00:07;;;;;;;15.10;10.63;;;;;;;17.00;72.08;99865.22;4975140;28;20042;-65
2021/07/03 08:02:32;;;;;;;14.85;10.68;;;;;;;17.00;72.27;99862.63;4957668;28;20055;-65
2021/07/03 08:04:58;;;;;;;13.45;10.02;;;;;;;17.01;72.22;99863.47;4975303;28;20082;-65
2021/07/03 08:07:26;;;;;;;12.32;9.55;;;;;;;17.02;72.36;99862.59;4973571;28;20045;-66
2021/07/03 08:09:54;;;;;;;14.05;10.50;;;;;;;17.03;72.50;99859.97;4974649;28;20058;-65
2021/07/03 08:12:22;;;;;;;12.75;9.63;;;;;;;17.05;72.35;99857.31;4973852;28;20387;-65
2021/07/03 08:14:48;;;;;;;11.40;9.70;;;;;;;17.06;72.56;99861.66;4974978;28;20039;-65
2021/07/03 08:17:16;;;;;;;11.18;9.55;;;;;;;17.07;72.33;99858.16;4974742;28;20043;-66
2021/07/03 08:19:41;;;;;;;17.95;10.73;;;;;;;17.09;72.52;99853.78;4974863;28;20074;-66
2021/07/03 08:22:07;;;;;;;12.38;9.93;;;;;;;17.11;72.51;99859.84;4974724;28;20470;-65
2021/07/03 08:24:35;;;;;;;13.52;9.82;;;;;;;17.12;72.44;99850.22;4975188;28;20046;-65
2021/07/03 08:27:00;;;;;;;14.45;10.57;;;;;;;17.15;72.55;99852.81;4957552;28;20073;-65
2021/07/03 08:29:26;;;;;;;13.23;10.55;;;;;;;17.16;72.46;99854.56;4974427;28;20074;-65
2021/07/03 08:31:55;;;;;;;11.70;9.38;;;;;;;17.17;72.32;99846.66;4974958;28;20038;-65
2021/07/03 08:34:20;;;;;;;12.25;9.73;;;;;;;17.18;72.42;99844.94;4974783;28;20035;-65
2021/07/03 08:36:46;;;;;;;15.52;10.23;;;;;;;17.18;72.62;99845.78;4974532;28;20045;-65
2021/07/03 08:39:11;;;;;;;11.95;9.35;;;;;;;17.21;72.48;99844.84;4974441;28;20031;-65
2021/07/03 08:41:38;;;;;;;11.15;9.75;;;;;;;17.22;72.57;99857.06;4973789;28;20089;-65
2021/07/03 08:44:07;;;;;;;15.15;9.50;;;;;;;17.24;72.63;99851.81;4974534;28;20494;-65
2021/07/03 08:46:32;;;;;;;10.70;9.18;;;;;;;17.25;72.36;99851.78;4957311;28;20045;-65
2021/07/03 08:48:58;;;;;;;12.13;9.60;;;;;;;17.27;72.54;99847.41;4974825;28;20043;-65
2021/07/03 08:51:27;;;;;;;13.15;9.73;;;;;;;17.28;72.53;99853.50;4974612;28;20035;-65
2021/07/03 08:53:57;;;;;;;13.45;10.10;;;;;;;17.31;72.51;99853.44;4974256;28;20393;-65
2021/07/03 08:56:23;;;;;;;12.95;10.10;;;;;;;17.30;72.68;99847.34;4957520;28;20026;-65
2021/07/03 08:58:48;;;;;;;10.95;8.63;;;;;;;17.32;72.73;99842.97;4973373;28;20567;-65
2021/07/03 09:01:14;;;;;;;10.45;8.90;;;;;;;17.33;72.84;99846.44;4974918;28;20069;-65
2021/07/03 09:03:53;;;;;;;11.40;9.07;;;;;;;17.34;72.70;99840.31;4956903;28;20138;-65
2021/07/03 09:06:29;;;;;;;11.73;9.77;;;;;;;17.36;72.75;99846.41;4973104;28;20069;-65
2021/07/03 09:08:57;;;;;;;11.90;8.90;;;;;;;17.37;72.89;99842.00;4973056;28;20122;-65
2021/07/03 09:11:22;;;;;;;14.85;8.85;;;;;;;17.38;72.93;99847.25;4974625;28;20046;-65
2021/07/03 09:14:01;;;;;;;14.27;8.88;;;;;;;17.40;72.86;99844.59;4973269;28;20031;-65
2021/07/03 09:16:31;;;;;;;12.45;8.23;;;;;;;17.40;73.06;99839.34;4957018;28;20043;-65
2021/07/03 09:18:57;;;;;;;10.48;8.38;;;;;;;17.41;73.02;99838.47;4956919;28;20034;-65
2021/07/03 09:21:22;;;;;;;10.55;8.77;;;;;;;17.42;72.88;99840.19;4974206;28;20038;-65
2021/07/03 09:23:48;;;;;;;12.82;9.25;;;;;;;17.43;72.95;99831.44;4976806;28;20042;-65
2021/07/03 09:26:13;;;;;;;13.05;8.85;;;;;;;17.44;72.94;99843.66;4978116;28;20462;-65
2021/07/03 09:28:44;;;;;;;10.32;8.98;;;;;;;17.45;72.96;99841.00;4978065;28;20035;-65
2021/07/03 09:31:12;;;;;;;13.60;7.97;;;;;;;17.46;73.06;99841.88;4978057;28;20513;-65
2021/07/03 09:33:37;;;;;;;9.30;8.30;;;;;;;17.46;73.04;99836.66;4976661;28;20160;-65
2021/07/03 09:36:06;;;;;;;11.15;8.57;;;;;;;17.48;73.15;99840.13;4960998;28;20034;-65
2021/07/03 09:38:52;;;;;;;10.15;8.93;;;;;;;17.49;73.17;99836.59;4960755;28;20140;-65
2021/07/03 09:41:17;;;;;;;12.30;8.88;;;;;;;17.51;72.98;99837.44;4977968;28;20137;-65
2021/07/03 09:43:49;;;;;;;11.40;8.13;;;;;;;17.51;73.05;99842.69;4977709;28;20066;-65
2021/07/03 09:46:24;;;;;;;9.52;8.52;;;;;;;17.52;73.36;99839.16;4978101;28;20511;-65
2021/07/03 09:48:58;;;;;;;9.20;8.07;;;;;;;17.53;72.94;99834.78;4960818;28;20031;-64
2021/07/03 09:51:29;;;;;;;10.77;8.90;;;;;;;17.53;73.21;99834.78;4959716;28;20046;-64
2021/07/03 09:53:56;;;;;;;9.63;8.63;;;;;;;17.53;73.06;99834.78;4960127;28;20038;-64
2021/07/03 09:56:22;;;;;;;9.98;8.48;;;;;;;17.53;72.96;99835.63;4977326;28;20070;-64
2021/07/03 09:58:48;;;;;;;8.95;8.05;;;;;;;17.54;72.99;99834.75;4961129;28;20074;-64
2021/07/03 10:01:16;;;;;;;10.77;8.45;;;;;;;17.54;73.01;99840.00;4976648;28;20138;-64
2021/07/03 10:03:42;;;;;;;10.65;8.77;;;;;;;17.55;73.26;99833.00;4977631;28;20203;-64
2021/07/03 10:06:12;;;;;;;9.85;8.52;;;;;;;17.55;73.30;99826.00;4975758;28;20037;-64
2021/07/03 10:08:42;;;;;;;10.13;8.13;;;;;;;17.55;73.03;99826.00;4959975;28;20034;-64
2021/07/03 10:11:10;;;;;;;13.30;8.52;;;;;;;17.57;73.35;99831.25;4959667;28;20030;-63
2021/07/03 10:13:39;;;;;;;9.20;8.02;;;;;;;17.57;73.01;99829.47;4977235;28;20069;-64
2021/07/03 10:16:08;;;;;;;10.43;8.63;;;;;;;17.58;73.32;99839.06;4977496;28;20064;-64
2021/07/03 10:18:34;;;;;;;11.45;8.68;;;;;;;17.59;73.35;99825.06;4959366;28;20049;-64
2021/07/03 10:21:08;;;;;;;9.93;8.63;;;;;;;17.60;72.99;99825.94;4959720;28;20090;-64
2021/07/03 10:23:39;;;;;;;11.57;8.23;;;;;;;17.61;73.23;99832.91;4959444;28;20443;-64
2021/07/03 10:26:05;;;;;;;13.20;9.68;;;;;;;17.62;73.43;99829.38;4975942;28;20043;-65
2021/07/03 10:28:33;;;;;;;9.32;8.18;;;;;;;17.62;73.28;99832.00;4976993;28;20412;-64
2021/07/03 10:31:11;;;;;;;10.10;7.53;;;;;;;17.63;73.07;99820.63;4975753;28;20490;-64
2021/07/03 10:33:41;;;;;;;10.05;7.78;;;;;;;17.64;73.29;99830.22;4975084;28;20463;-64
2021/07/03 10:36:06;;;;;;;11.27;8.48;;;;;;;17.65;73.38;99824.09;4976495;28;20031;-64
2021/07/03 10:38:42;;;;;;;11.13;9.00;;;;;;;17.64;73.54;99819.75;4976991;28;20030;-64
2021/07/03 10:41:18;;;;;;;9.38;8.30;;;;;;;17.65;73.22;99824.09;4959621;28;20030;-64
2021/07/03 10:43:49;;;;;;;9.35;8.40;;;;;;;17.65;73.32;99822.38;4959609;28;20046;-64
2021/07/03 10:46:32;;;;;;;10.25;8.52;;;;;;;17.67;73.32;99821.47;4959509;28;20089;-64
2021/07/03 10:49:00;;;;;;;11.00;8.57;;;;;;;17.68;73.44;99820.56;4975511;28;20039;-64
2021/07/03 10:51:38;;;;;;;10.00;8.30;;;;;;;17.68;73.63;99817.94;4975404;28;20039;-64
2021/07/03 10:54:12;;;;;;;10.95;8.60;;;;;;;17.68;73.49;99816.19;4959473;28;20067;-64
2021/07/03 10:57:05;;;;;;;10.27;8.70;;;;;;;17.69;73.41;99812.69;4976610;28;20034;-64
2021/07/03 10:59:38;;;;;;;10.77;8.45;;;;;;;17.71;73.33;99810.03;4959984;28;20054;-64
2021/07/03 11:02:15;;;;;;;11.20;8.75;;;;;;;17.72;73.51;99814.38;4976471;28;20053;-64
2021/07/03 11:04:45;;;;;;;10.63;8.35;;;;;;;17.73;73.52;99808.25;4976462;28;20031;-64
2021/07/03 11:07:17;;;;;;;9.18;8.27;;;;;;;17.74;73.34;99809.97;4958925;28;20039;-64
2021/07/03 11:09:43;;;;;;;9.15;8.18;;;;;;;17.75;73.46;99811.72;4958875;28;20041;-64
2021/07/03 11:12:21;;;;;;;10.85;8.85;;;;;;;17.75;73.65;99809.09;4959258;28;20034;-64
2021/07/03 11:14:55;;;;;;;10.68;9.50;;;;;;;17.77;73.46;99809.94;4975326;28;20474;-64
2021/07/03 11:17:25;;;;;;;;;;;;;;;17.76;73.43;99808.19;4974951;28;20035;-64
2021/07/03 11:19:52;;;;;;;9.25;8.35;;;;;;;17.75;73.63;99798.59;4974927;28;19918;-65
2021/07/03 11:22:22;;;;;;;9.55;8.50;;;;;;;17.75;73.69;99791.59;4958527;28;20093;-64